createdAt,value
2023-01-04T00:02:28.605Z,5.00
2023-01-04T00:04:56.739Z,4.90
2023-01-04T00:07:28.565Z,4.90
2023-01-04T00:09:55.921Z,4.90
2023-01-04T00:12:23.598Z,4.90
2023-01-04T00:14:57.419Z,4.90
2023-01-04T00:17:24.342Z,4.80
2023-01-04T00:19:51.303Z,4.90
2023-01-04T00:22:21.341Z,4.80
2023-01-04T00:24:52.629Z,4.70
2023-01-04T00:27:27.320Z,4.80
2023-01-04T00:29:55.302Z,4.80
2023-01-04T00:32:22.295Z,4.80
2023-01-04T00:34:49.254Z,4.60
2023-01-04T00:37:16.735Z,4.70
2023-01-04T00:39:46.244Z,4.60
2023-01-04T00:42:13.963Z,4.60
2023-01-04T00:44:46.882Z,4.70
2023-01-04T00:47:15.939Z,4.60
2023-01-04T00:49:47.081Z,4.70
2023-01-04T00:52:15.133Z,4.70
2023-01-04T00:54:43.833Z,4.60
2023-01-04T00:57:16.037Z,4.60
2023-01-04T00:59:44.331Z,4.60
2023-01-04T01:02:13.344Z,4.50
2023-01-04T01:04:43.179Z,4.60
2023-01-04T01:07:10.191Z,4.70
2023-01-04T01:09:37.118Z,4.80
2023-01-04T01:12:07.364Z,4.80
2023-01-04T01:14:38.455Z,4.80
2023-01-04T01:17:09.122Z,4.80
2023-01-04T01:19:36.713Z,4.80
2023-01-04T01:22:07.052Z,4.70
2023-01-04T01:24:35.796Z,4.70
2023-01-04T01:27:05.975Z,4.60
2023-01-04T01:29:32.975Z,4.70
2023-01-04T01:32:00.732Z,4.70
2023-01-04T01:34:37.150Z,4.70
2023-01-04T01:37:07.600Z,4.60
2023-01-04T01:39:38.187Z,4.50
2023-01-04T01:42:06.146Z,4.50
2023-01-04T01:45:01.051Z,4.50
2023-01-04T01:47:42.746Z,4.40
2023-01-04T01:50:28.056Z,4.30
2023-01-04T01:52:57.662Z,4.20
2023-01-04T01:55:30.776Z,4.20
2023-01-04T01:58:00.632Z,4.10
2023-01-04T02:00:31.603Z,4.10
2023-01-04T02:03:22.239Z,4.10
2023-01-04T02:05:56.281Z,4.00
2023-01-04T02:08:25.156Z,3.90
2023-01-04T02:10:52.157Z,3.80
2023-01-04T02:13:23.555Z,3.80
2023-01-04T02:16:21.282Z,3.70
2023-01-04T02:19:15.512Z,3.80
2023-01-04T02:21:58.633Z,3.80
2023-01-04T02:25:10.264Z,3.70
2023-01-04T02:28:06.603Z,3.60
2023-01-04T02:30:57.960Z,3.60
2023-01-04T02:33:58.915Z,3.60
2023-01-04T02:37:05.522Z,3.70
2023-01-04T02:40:02.532Z,3.70
2023-01-04T02:43:08.410Z,3.60
2023-01-04T02:45:47.243Z,3.60
2023-01-04T02:48:36.180Z,3.60
2023-01-04T02:51:07.129Z,3.60
2023-01-04T02:53:37.548Z,3.60
2023-01-04T02:56:38.822Z,3.70
2023-01-04T02:59:28.905Z,3.60
2023-01-04T03:02:21.382Z,3.60
2023-01-04T03:05:37.466Z,3.50
2023-01-04T03:08:34.797Z,3.40
2023-01-04T03:11:32.436Z,3.40
2023-01-04T03:14:31.058Z,3.40
2023-01-04T03:17:08.506Z,3.30
2023-01-04T03:19:56.868Z,3.20
2023-01-04T03:22:53.098Z,3.20
2023-01-04T03:26:07.378Z,3.20
2023-01-04T03:28:58.173Z,3.10
2023-01-04T03:31:46.681Z,3.10
2023-01-04T03:34:32.932Z,3.10
2023-01-04T03:37:26.060Z,3.20
2023-01-04T03:40:28.135Z,3.20
2023-01-04T03:43:38.212Z,3.30
2023-01-04T03:46:30.202Z,3.10
2023-01-04T03:49:29.907Z,3.10
2023-01-04T03:52:04.133Z,3.10
2023-01-04T03:54:50.449Z,3.10
2023-01-04T03:57:18.928Z,3.10
2023-01-04T03:59:51.911Z,3.00
2023-01-04T04:02:25.353Z,3.00
2023-01-04T04:05:11.351Z,3.00
2023-01-04T04:08:02.535Z,2.90
2023-01-04T04:10:35.949Z,2.70
2023-01-04T04:13:05.110Z,2.80
2023-01-04T04:15:36.798Z,2.70
2023-01-04T04:18:05.079Z,2.70
2023-01-04T04:20:33.313Z,2.70
2023-01-04T04:23:12.412Z,2.70
2023-01-04T04:25:44.277Z,2.50
2023-01-04T04:28:14.279Z,2.50
2023-01-04T04:30:43.371Z,2.50
2023-01-04T04:33:10.288Z,2.50
2023-01-04T04:35:46.740Z,2.60
2023-01-04T04:38:17.057Z,2.50
2023-01-04T04:41:03.306Z,2.60
2023-01-04T04:43:35.768Z,2.50
2023-01-04T04:46:09.449Z,2.40
2023-01-04T04:48:36.685Z,2.30
2023-01-04T04:53:49.120Z,2.40
2023-01-04T04:56:27.597Z,2.40
2023-01-04T04:58:58.904Z,2.40
2023-01-04T05:01:28.744Z,2.40
2023-01-04T05:03:58.992Z,2.40
2023-01-04T05:06:35.698Z,2.40
2023-01-04T05:09:04.493Z,2.40
2023-01-04T05:12:01.251Z,2.30
2023-01-04T05:14:33.775Z,2.30
2023-01-04T05:17:04.300Z,2.40
2023-01-04T05:19:34.586Z,2.40
2023-01-04T05:22:08.260Z,2.40
2023-01-04T05:24:36.820Z,2.50
2023-01-04T05:27:07.686Z,2.50
2023-01-04T05:30:01.515Z,2.60
2023-01-04T05:32:28.759Z,2.50
2023-01-04T05:34:58.166Z,2.40
2023-01-04T05:37:28.711Z,2.40
2023-01-04T05:39:56.968Z,2.30
2023-01-04T05:42:29.017Z,2.30
2023-01-04T05:44:58.814Z,2.40
2023-01-04T05:47:27.358Z,2.30
2023-01-04T05:49:55.383Z,2.30
2023-01-04T05:52:23.320Z,2.30
2023-01-04T05:54:54.725Z,2.30
2023-01-04T05:57:24.571Z,2.30
2023-01-04T06:00:00.639Z,2.30
2023-01-04T06:02:33.341Z,2.20
2023-01-04T06:05:06.542Z,2.10
2023-01-04T06:07:34.533Z,2.00
2023-01-04T06:12:47.093Z,2.10
2023-01-04T06:15:19.904Z,2.10
2023-01-04T06:17:49.104Z,2.00
2023-01-04T06:20:20.007Z,2.00
2023-01-04T06:22:47.705Z,1.90
2023-01-04T06:25:18.271Z,1.80
2023-01-04T06:27:47.658Z,1.90
2023-01-04T06:30:18.172Z,2.00
2023-01-04T06:32:47.466Z,2.00
2023-01-04T06:35:15.924Z,2.10
2023-01-04T06:37:46.682Z,2.10
2023-01-04T06:40:13.691Z,2.20
2023-01-04T06:42:47.779Z,2.20
2023-01-04T06:45:17.900Z,2.10
2023-01-04T06:47:57.061Z,2.10
2023-01-04T06:50:25.212Z,2.10
2023-01-04T06:52:52.594Z,2.20
2023-01-04T06:55:23.378Z,2.10
2023-01-04T06:57:55.059Z,2.10
2023-01-04T07:00:29.515Z,2.20
2023-01-04T07:03:13.631Z,2.20
2023-01-04T07:05:47.306Z,2.10
2023-01-04T07:08:15.318Z,2.10
2023-01-04T07:10:43.800Z,2.10
2023-01-04T07:13:22.915Z,2.20
2023-01-04T07:18:35.177Z,2.10
2023-01-04T07:21:09.070Z,2.00
2023-01-04T07:23:36.665Z,2.10
2023-01-04T07:26:03.915Z,2.10
2023-01-04T07:28:55.936Z,2.10
2023-01-04T07:31:28.043Z,2.10
2023-01-04T07:33:58.506Z,2.30
2023-01-04T07:36:27.985Z,2.20
2023-01-04T07:38:59.062Z,2.10
2023-01-04T07:41:29.640Z,2.10
2023-01-04T07:46:40.396Z,2.30
2023-01-04T07:49:16.631Z,2.30
2023-01-04T07:51:46.259Z,2.30
2023-01-04T07:54:23.033Z,2.30
2023-01-04T07:56:51.122Z,2.20
2023-01-04T07:59:21.293Z,2.20
2023-01-04T08:01:54.240Z,2.20
2023-01-04T08:04:28.315Z,2.10
2023-01-04T08:06:58.826Z,2.30
2023-01-04T08:09:25.801Z,2.30
2023-01-04T08:11:52.780Z,2.30
2023-01-04T08:17:07.494Z,2.30
2023-01-04T08:19:35.686Z,2.40
2023-01-04T08:22:08.563Z,2.40
2023-01-04T08:24:37.636Z,2.50
2023-01-04T08:27:08.154Z,2.40
2023-01-04T08:29:38.460Z,2.50
2023-01-04T08:32:07.563Z,2.60
2023-01-04T08:34:35.061Z,2.70
2023-01-04T08:37:04.526Z,2.80
2023-01-04T08:39:35.579Z,2.80
2023-01-04T08:42:20.256Z,2.90
2023-01-04T08:44:55.679Z,2.90
2023-01-04T08:47:29.023Z,3.00
2023-01-04T08:49:58.729Z,3.10
2023-01-04T08:52:29.625Z,3.10
2023-01-04T08:55:10.189Z,3.10
2023-01-04T08:57:40.837Z,3.20
2023-01-04T09:00:11.782Z,3.20
2023-01-04T09:02:42.721Z,3.30
2023-01-04T09:05:22.235Z,3.30
2023-01-04T09:07:51.379Z,3.30
2023-01-04T09:10:38.198Z,3.40
2023-01-04T09:13:08.639Z,3.50
2023-01-04T09:15:37.307Z,3.60
2023-01-04T09:18:33.644Z,3.70
2023-01-04T09:20:57.356Z,3.70
2023-01-04T09:23:26.223Z,3.80
2023-01-04T09:25:57.317Z,3.70
2023-01-04T09:28:25.003Z,3.80
2023-01-04T09:30:58.591Z,3.80
2023-01-04T09:33:47.782Z,3.70
2023-01-04T09:36:18.782Z,3.80
2023-01-04T09:38:56.781Z,3.90
2023-01-04T09:41:38.938Z,3.90
2023-01-04T09:44:10.222Z,4.00
2023-01-04T09:47:09.553Z,4.00
2023-01-04T09:50:07.222Z,4.10
2023-01-04T09:52:44.066Z,4.20
2023-01-04T09:55:36.912Z,4.30
2023-01-04T09:58:31.273Z,4.40
2023-01-04T10:01:05.034Z,4.50
2023-01-04T10:03:47.520Z,4.60
2023-01-04T10:06:17.631Z,4.70
2023-01-04T10:08:48.556Z,4.60
2023-01-04T10:11:56.376Z,4.80
2023-01-04T10:14:30.764Z,4.90
2023-01-04T10:17:57.542Z,5.00
2023-01-04T10:21:21.764Z,5.30
2023-01-04T10:23:36.080Z,5.40
2023-01-04T10:26:37.374Z,5.70
2023-01-04T10:29:42.329Z,5.90
2023-01-04T10:32:37.447Z,6.30
2023-01-04T10:35:27.497Z,6.60
2023-01-04T10:38:03.975Z,6.80
2023-01-04T10:40:39.685Z,7.10
2023-01-04T10:44:11.752Z,7.30
2023-01-04T10:46:58.630Z,7.40
2023-01-04T10:49:39.824Z,7.50
2023-01-04T10:52:31.321Z,7.60
2023-01-04T10:55:11.101Z,7.70
2023-01-04T10:57:55.675Z,7.90
2023-01-04T11:00:42.949Z,7.90
2023-01-04T11:04:04.695Z,7.90
2023-01-04T11:07:00.819Z,8.00
2023-01-04T11:09:39.637Z,8.10
2023-01-04T11:12:13.378Z,8.10
2023-01-04T11:14:42.484Z,8.30
2023-01-04T11:17:14.090Z,8.50
2023-01-04T11:19:43.158Z,8.50
2023-01-04T11:22:21.717Z,8.50
2023-01-04T11:25:33.670Z,8.50
2023-01-04T11:28:04.294Z,8.60
2023-01-04T11:30:58.169Z,8.70
2023-01-04T11:33:29.004Z,8.80
2023-01-04T11:36:01.620Z,8.90
2023-01-04T11:38:31.814Z,9.00
2023-01-04T11:41:08.371Z,9.10
2023-01-04T11:43:38.784Z,9.10
2023-01-04T11:46:27.724Z,9.10
2023-01-04T11:48:58.173Z,9.00
2023-01-04T11:51:36.109Z,9.10
2023-01-04T11:54:21.760Z,9.10
2023-01-04T11:57:12.045Z,9.20
2023-01-04T11:59:40.058Z,9.40
2023-01-04T12:03:00.229Z,9.40
2023-01-04T12:05:29.532Z,9.40
2023-01-04T12:08:00.218Z,9.50
2023-01-04T12:10:30.195Z,9.60
2023-01-04T12:13:05.115Z,9.60
2023-01-04T12:16:10.991Z,9.70
2023-01-04T12:18:48.265Z,9.80
2023-01-04T12:21:25.528Z,9.90
2023-01-04T12:24:15.499Z,9.90
2023-01-04T12:26:43.429Z,9.90
2023-01-04T12:29:30.479Z,9.80
2023-01-04T12:32:16.253Z,9.90
2023-01-04T12:34:47.701Z,10.00
2023-01-04T12:37:48.358Z,10.00
2023-01-04T12:40:49.956Z,10.20
2023-01-04T12:43:46.879Z,10.40
2023-01-04T12:46:59.934Z,10.50
2023-01-04T12:53:10.126Z,10.60
2023-01-04T12:55:47.018Z,10.80
2023-01-04T12:59:24.737Z,10.80
2023-01-04T13:01:30.121Z,10.90
2023-01-04T13:04:14.693Z,10.90
2023-01-04T13:06:47.621Z,11.20
2023-01-04T13:09:33.339Z,11.10
2023-01-04T13:12:47.206Z,11.30
2023-01-04T13:15:59.312Z,11.30
2023-01-04T13:18:32.127Z,11.10
2023-01-04T13:21:11.323Z,11.00
2023-01-04T13:23:48.422Z,11.10
2023-01-04T13:26:31.554Z,11.20
2023-01-04T13:29:14.776Z,11.50
2023-01-04T13:31:48.589Z,12.00
2023-01-04T13:34:35.333Z,12.80
2023-01-04T13:37:31.455Z,13.20
2023-01-04T13:40:40.730Z,12.90
2023-01-04T13:43:33.142Z,12.90
2023-01-04T13:46:22.785Z,12.60
2023-01-04T13:48:56.042Z,12.40
2023-01-04T13:51:30.640Z,12.40
2023-01-04T13:54:08.545Z,12.70
2023-01-04T13:56:35.829Z,12.20
2023-01-04T13:59:02.863Z,11.90
2023-01-04T14:01:42.065Z,11.60
2023-01-04T14:04:17.042Z,11.30
2023-01-04T14:06:47.660Z,11.20
2023-01-04T14:09:21.121Z,11.00
2023-01-04T14:14:58.817Z,10.50
2023-01-04T14:17:56.399Z,10.30
2023-01-04T14:20:29.420Z,10.20
2023-01-04T14:22:59.217Z,10.00
2023-01-04T14:25:38.416Z,9.80
2023-01-04T14:28:32.557Z,9.60
2023-01-04T14:31:07.135Z,9.40
2023-01-04T14:33:47.756Z,9.30
2023-01-04T14:36:40.419Z,9.20
2023-01-04T14:39:21.219Z,9.10
2023-01-04T14:41:57.393Z,9.10
2023-01-04T14:44:28.606Z,9.00
2023-01-04T14:47:00.359Z,8.90
2023-01-04T14:49:32.057Z,8.90
2023-01-04T14:52:01.638Z,8.80
2023-01-04T14:54:29.975Z,8.90
2023-01-04T14:57:00.306Z,8.80
2023-01-04T14:59:39.282Z,8.90
2023-01-04T15:02:06.614Z,8.90
2023-01-04T15:04:37.885Z,8.80
2023-01-04T15:07:28.838Z,8.80
2023-01-04T15:09:57.081Z,8.80
2023-01-04T15:12:24.016Z,8.80
2023-01-04T15:14:55.149Z,8.70
2023-01-04T15:17:24.570Z,8.70
2023-01-04T15:19:57.497Z,8.80
2023-01-04T15:22:28.101Z,8.80
2023-01-04T15:24:59.110Z,8.70
2023-01-04T15:27:31.867Z,8.50
2023-01-04T15:30:05.617Z,8.40
2023-01-04T15:32:36.207Z,8.40
2023-01-04T15:35:03.903Z,8.30
2023-01-04T15:37:31.943Z,8.20
2023-01-04T15:40:03.185Z,8.30
2023-01-04T15:42:49.062Z,8.30
2023-01-04T15:45:19.222Z,8.20
2023-01-04T15:47:46.644Z,8.20
2023-01-04T15:50:13.672Z,8.30
2023-01-04T15:52:40.660Z,8.30
2023-01-04T15:55:09.173Z,8.20
2023-01-04T15:57:43.772Z,8.10
2023-01-04T16:00:12.087Z,8.20
2023-01-04T16:02:42.073Z,8.10
2023-01-04T16:05:09.900Z,8.20
2023-01-04T16:07:36.957Z,8.10
2023-01-04T16:10:05.999Z,8.10
2023-01-04T16:12:41.628Z,8.10
2023-01-04T16:15:10.179Z,8.00
2023-01-04T16:17:37.526Z,8.00
2023-01-04T16:20:06.894Z,8.00
2023-01-04T16:22:34.337Z,8.00
2023-01-04T16:25:16.597Z,8.00
2023-01-04T16:27:47.360Z,8.00
2023-01-04T16:30:14.678Z,8.00
2023-01-04T16:32:43.840Z,7.90
2023-01-04T16:35:12.079Z,7.80
2023-01-04T16:37:39.800Z,7.80
2023-01-04T16:40:10.068Z,7.80
2023-01-04T16:42:38.227Z,7.80
2023-01-04T16:45:06.856Z,7.80
2023-01-04T16:47:42.689Z,7.80
2023-01-04T16:50:13.203Z,7.70
2023-01-04T16:52:40.634Z,7.80
2023-01-04T16:55:09.267Z,7.70
2023-01-04T16:57:37.469Z,7.70
2023-01-04T17:00:05.282Z,7.60
2023-01-04T17:02:32.428Z,7.60
2023-01-04T17:05:00.889Z,7.50
2023-01-04T17:07:32.749Z,7.50
2023-01-04T17:10:01.351Z,7.50
2023-01-04T17:12:46.954Z,7.40
2023-01-04T17:18:09.207Z,7.30
2023-01-04T17:20:40.976Z,7.40
2023-01-04T17:23:08.839Z,7.40
2023-01-04T17:25:36.637Z,7.50
2023-01-04T17:28:06.597Z,7.40
2023-01-04T17:30:39.572Z,7.40
2023-01-04T17:33:07.078Z,7.40
2023-01-04T17:35:39.671Z,7.30
2023-01-04T17:38:09.798Z,7.30
2023-01-04T17:40:37.188Z,7.30
2023-01-04T17:43:05.765Z,7.20
2023-01-04T17:45:33.750Z,7.20
2023-01-04T17:48:01.072Z,7.20
2023-01-04T17:50:29.376Z,7.20
2023-01-04T17:53:02.889Z,7.20
2023-01-04T17:55:35.696Z,7.20
2023-01-04T17:58:06.094Z,7.10
2023-01-04T18:03:14.515Z,7.30
2023-01-04T18:05:51.822Z,7.20
2023-01-04T18:08:32.171Z,7.30
2023-01-04T18:11:09.229Z,7.30
2023-01-04T18:16:24.914Z,7.40
2023-01-04T18:19:03.187Z,7.40
2023-01-04T18:21:31.742Z,7.30
2023-01-04T18:29:42.489Z,7.30
2023-01-04T18:32:12.074Z,7.30
2023-01-04T18:34:40.661Z,7.30
2023-01-04T18:37:08.247Z,7.30
2023-01-04T18:39:36.114Z,7.20
2023-01-04T18:42:06.041Z,7.20
2023-01-04T18:44:35.825Z,7.20
2023-01-04T18:47:07.934Z,7.20
2023-01-04T18:49:37.845Z,7.20
2023-01-04T18:52:07.149Z,7.20
2023-01-04T18:54:35.975Z,7.20
2023-01-04T18:57:10.581Z,7.20
2023-01-04T18:59:39.860Z,7.20
2023-01-04T19:02:10.362Z,7.10
2023-01-04T19:04:39.580Z,7.20
2023-01-04T19:07:09.735Z,7.30
2023-01-04T19:09:37.969Z,7.20
2023-01-04T19:12:06.335Z,7.20
2023-01-04T19:14:36.467Z,7.20
2023-01-04T19:17:05.307Z,7.20
2023-01-04T19:19:36.748Z,7.30
2023-01-04T19:22:07.890Z,7.40
2023-01-04T19:24:37.319Z,7.50
2023-01-04T19:27:16.346Z,7.60
2023-01-04T19:29:53.395Z,7.80
2023-01-04T19:32:21.492Z,7.90
2023-01-04T19:34:52.792Z,7.90
2023-01-04T19:37:22.191Z,8.00
2023-01-04T19:40:00.460Z,8.00
2023-01-04T19:42:30.109Z,8.10
2023-01-04T19:45:00.261Z,8.20
2023-01-04T19:47:28.207Z,8.30
2023-01-04T19:49:56.183Z,8.50
2023-01-04T19:52:26.163Z,8.80
2023-01-04T19:54:53.902Z,9.10
2023-01-04T19:57:22.489Z,9.50
2023-01-04T19:59:50.292Z,9.70
2023-01-04T20:02:20.089Z,9.90
2023-01-04T20:04:54.305Z,10.00
2023-01-04T20:07:23.023Z,10.00
2023-01-04T20:09:52.592Z,10.00
2023-01-04T20:12:22.332Z,9.90
2023-01-04T20:14:52.537Z,10.00
2023-01-04T20:17:21.615Z,10.00
2023-01-04T20:19:49.202Z,9.90
2023-01-04T20:22:20.240Z,9.90
2023-01-04T20:24:48.187Z,9.90
2023-01-04T20:27:28.671Z,9.90
2023-01-04T20:29:58.558Z,10.10
2023-01-04T20:32:26.062Z,10.20
2023-01-04T20:34:59.020Z,10.20
2023-01-04T20:37:30.121Z,10.20
2023-01-04T20:39:58.046Z,10.20
2023-01-04T20:42:44.065Z,10.20
2023-01-04T20:45:14.879Z,10.30
2023-01-04T20:47:45.094Z,10.30
2023-01-04T20:50:16.065Z,10.30
2023-01-04T20:52:46.823Z,10.40
2023-01-04T20:55:17.707Z,10.40
2023-01-04T20:57:48.392Z,10.40
2023-01-04T21:00:18.209Z,10.50
2023-01-04T21:02:51.204Z,10.40
2023-01-04T21:05:22.006Z,10.50
2023-01-04T21:07:50.524Z,10.50
2023-01-04T21:10:21.002Z,10.50
2023-01-04T21:12:51.047Z,10.60
2023-01-04T21:15:22.484Z,10.60
2023-01-04T21:17:49.734Z,10.50
2023-01-04T21:20:25.535Z,10.50
2023-01-04T21:22:53.035Z,10.60
2023-01-04T21:25:21.401Z,10.60
2023-01-04T21:27:48.802Z,10.60
2023-01-04T21:30:17.040Z,10.70
2023-01-04T21:32:48.096Z,10.70
2023-01-04T21:38:00.625Z,10.90
2023-01-04T21:40:28.284Z,11.00
2023-01-04T21:42:56.928Z,11.00
2023-01-04T21:45:25.931Z,11.20
2023-01-04T21:47:56.527Z,11.30
2023-01-04T21:50:24.588Z,11.20
2023-01-04T21:52:51.825Z,11.40
2023-01-04T21:55:19.591Z,11.40
2023-01-04T21:57:47.691Z,11.40
2023-01-04T22:00:17.159Z,11.40
2023-01-04T22:02:44.618Z,11.50
2023-01-04T22:05:12.130Z,11.60
2023-01-04T22:07:40.276Z,11.60
2023-01-04T22:10:08.650Z,11.60
2023-01-04T22:12:35.622Z,11.60
2023-01-04T22:15:02.602Z,11.60
2023-01-04T22:17:29.633Z,11.60
2023-01-04T22:19:56.600Z,11.60
2023-01-04T22:22:26.943Z,11.60
2023-01-04T22:24:56.480Z,11.60
2023-01-04T22:27:27.229Z,11.70
2023-01-04T22:30:05.023Z,11.70
2023-01-04T22:32:33.575Z,11.70
2023-01-04T22:35:00.566Z,11.70
2023-01-04T22:37:27.517Z,11.70
2023-01-04T22:39:54.440Z,11.70
2023-01-04T22:42:26.666Z,11.70
2023-01-04T22:44:54.864Z,11.70
2023-01-04T22:47:26.945Z,11.70
2023-01-04T22:50:06.338Z,11.60
2023-01-04T22:52:33.299Z,11.70
2023-01-04T22:55:02.554Z,11.70
2023-01-04T22:57:33.610Z,11.60
2023-01-04T23:00:00.632Z,11.60
2023-01-04T23:02:31.300Z,11.60
2023-01-04T23:04:58.358Z,11.50
2023-01-04T23:07:25.314Z,11.50
2023-01-04T23:09:53.693Z,11.50
2023-01-04T23:12:24.140Z,11.50
2023-01-04T23:14:52.328Z,11.40
2023-01-04T23:17:21.927Z,11.40
2023-01-04T23:19:52.269Z,11.40
2023-01-04T23:22:21.536Z,11.30
2023-01-04T23:24:51.828Z,11.30
2023-01-04T23:27:21.363Z,11.30
2023-01-04T23:29:48.413Z,11.30
2023-01-04T23:32:16.825Z,11.30
2023-01-04T23:34:43.842Z,11.20
2023-01-04T23:37:13.111Z,11.30
2023-01-04T23:39:41.499Z,11.30
2023-01-04T23:42:09.500Z,11.30
2023-01-04T23:44:36.440Z,11.30
2023-01-04T23:49:34.117Z,11.20
2023-01-04T23:52:03.765Z,11.20
2023-01-04T23:54:31.140Z,11.10
2023-01-04T23:56:59.729Z,11.10
2023-01-04T23:59:28.111Z,11.10
